createdAt,value
2018-12-24T00:00:28.049Z,0
2018-12-24T00:01:54.998Z,0
2018-12-24T00:03:22.094Z,0
2018-12-24T00:04:51.087Z,0
2018-12-24T00:06:18.754Z,0
2018-12-24T00:07:46.440Z,0
2018-12-24T00:09:13.955Z,0
2018-12-24T00:10:43.757Z,0
2018-12-24T00:12:19.377Z,0
2018-12-24T00:13:46.773Z,0
2018-12-24T00:15:14.834Z,0
2018-12-24T00:16:44.633Z,0
2018-12-24T00:18:13.164Z,0
2018-12-24T00:19:43.031Z,0
2018-12-24T00:21:08.176Z,0
2018-12-24T00:22:37.873Z,0
2018-12-24T00:24:06.977Z,0
2018-12-24T00:25:33.776Z,0
2018-12-24T00:26:59.076Z,0
2018-12-24T00:28:28.322Z,0
2018-12-24T00:29:56.232Z,0
2018-12-24T00:31:25.188Z,0
2018-12-24T00:32:55.863Z,0
2018-12-24T00:34:24.221Z,0
2018-12-24T00:35:53.566Z,0
2018-12-24T00:37:23.255Z,0
2018-12-24T00:38:49.882Z,0
2018-12-24T00:40:17.860Z,0
2018-12-24T00:41:45.686Z,0
2018-12-24T00:43:14.292Z,0
2018-12-24T00:44:41.471Z,0
2018-12-24T00:46:12.612Z,0
2018-12-24T00:47:40.852Z,0
2018-12-24T00:49:09.498Z,0
2018-12-24T00:50:37.548Z,0
2018-12-24T00:52:06.871Z,0
2018-12-24T00:53:37.485Z,0
2018-12-24T00:55:07.200Z,0
2018-12-24T00:56:33.735Z,0
2018-12-24T00:57:59.595Z,0
2018-12-24T00:59:29.246Z,0
2018-12-24T01:00:53.498Z,0
2018-12-24T01:02:21.545Z,0
2018-12-24T01:03:50.403Z,0
2018-12-24T01:05:20.616Z,0
2018-12-24T01:06:47.870Z,0
2018-12-24T01:08:13.945Z,0
2018-12-24T01:09:43.753Z,0
2018-12-24T01:11:13.709Z,0
2018-12-24T01:12:41.369Z,0
2018-12-24T01:14:12.891Z,0
2018-12-24T01:15:40.668Z,0
2018-12-24T01:17:06.584Z,0
2018-12-24T01:18:35.408Z,0
2018-12-24T01:20:02.652Z,0
2018-12-24T01:21:18.201Z,0
2018-12-24T01:22:28.085Z,0
2018-12-24T01:23:37.651Z,0
2018-12-24T01:24:47.453Z,0
2018-12-24T01:25:57.479Z,0
2018-12-24T01:27:12.139Z,0
2018-12-24T01:28:21.965Z,0
2018-12-24T01:29:32.041Z,0
2018-12-24T01:30:42.110Z,0
2018-12-24T01:31:52.178Z,0
2018-12-24T01:33:02.290Z,0
2018-12-24T01:34:12.370Z,0
2018-12-24T01:35:22.181Z,0
2018-12-24T01:36:32.233Z,0
2018-12-24T01:37:42.313Z,0
2018-12-24T01:38:52.399Z,0
2018-12-24T01:40:02.564Z,0
2018-12-24T01:41:12.637Z,0
2018-12-24T01:42:22.695Z,0
2018-12-24T01:43:41.039Z,0
2018-12-24T01:44:51.071Z,0
2018-12-24T01:46:01.128Z,0
2018-12-24T01:47:11.209Z,0
2018-12-24T01:48:20.998Z,0
2018-12-24T01:49:30.543Z,0
2018-12-24T01:50:40.373Z,0
2018-12-24T01:51:50.427Z,0
2018-12-24T01:53:00.323Z,0
2018-12-24T01:54:10.160Z,0
2018-12-24T01:55:20.241Z,0
2018-12-24T01:56:30.068Z,0
2018-12-24T01:57:40.124Z,0
2018-12-24T01:58:50.442Z,0
2018-12-24T01:59:59.714Z,0
2018-12-24T02:01:11.262Z,0
2018-12-24T02:02:21.336Z,0
2018-12-24T02:03:31.424Z,0
2018-12-24T02:04:41.449Z,0
2018-12-24T02:05:51.258Z,0
2018-12-24T02:07:03.173Z,0
2018-12-24T02:08:12.812Z,0
2018-12-24T02:09:23.144Z,0
2018-12-24T02:10:33.017Z,0
2018-12-24T02:11:43.363Z,0
2018-12-24T02:12:53.422Z,0
2018-12-24T02:14:03.555Z,0
2018-12-24T02:15:13.359Z,0
2018-12-24T02:16:23.440Z,0
2018-12-24T02:17:33.525Z,0
2018-12-24T02:21:23.730Z,0
2018-12-24T02:22:33.812Z,0
2018-12-24T02:23:44.132Z,0
2018-12-24T02:24:54.201Z,0
2018-12-24T02:26:04.300Z,0
2018-12-24T02:27:14.371Z,0
2018-12-24T02:28:24.220Z,0
2018-12-24T02:29:34.295Z,0
2018-12-24T02:30:44.496Z,0
2018-12-24T02:31:54.581Z,0
2018-12-24T02:33:04.119Z,0
2018-12-24T02:34:14.199Z,0
2018-12-24T02:35:24.306Z,0
2018-12-24T02:36:34.133Z,0
2018-12-24T02:37:43.992Z,0
2018-12-24T02:38:54.029Z,0
2018-12-24T02:40:04.543Z,0
2018-12-24T02:41:14.663Z,0
2018-12-24T02:42:25.002Z,0
2018-12-24T02:43:35.121Z,0
2018-12-24T02:44:45.251Z,0
2018-12-24T02:45:55.361Z,0
2018-12-24T02:47:07.756Z,0
2018-12-24T02:48:17.833Z,0
2018-12-24T02:49:28.011Z,0
2018-12-24T02:50:37.807Z,0
2018-12-24T02:51:47.933Z,0
2018-12-24T02:52:58.026Z,0
2018-12-24T02:54:08.119Z,0
2018-12-24T02:55:18.204Z,0
2018-12-24T02:56:28.310Z,0
2018-12-24T02:57:38.381Z,0
2018-12-24T02:58:48.469Z,0
2018-12-24T02:59:58.610Z,0
2018-12-24T03:01:08.821Z,0
2018-12-24T03:02:18.988Z,0
2018-12-24T03:34:31.350Z,0
2018-12-24T03:35:41.437Z,0
2018-12-24T03:36:51.508Z,0
2018-12-24T03:38:01.572Z,0
2018-12-24T03:39:11.617Z,0
2018-12-24T03:40:21.501Z,0
2018-12-24T03:41:31.314Z,0
2018-12-24T03:42:41.395Z,0
2018-12-24T03:43:50.710Z,0
2018-12-24T03:45:00.776Z,0
2018-12-24T03:46:10.854Z,0
2018-12-24T03:47:21.064Z,0
2018-12-24T03:48:31.237Z,0
2018-12-24T03:49:41.740Z,0
2018-12-24T03:50:51.990Z,0
2018-12-24T03:52:02.084Z,0
2018-12-24T03:53:11.888Z,0
2018-12-24T03:54:21.952Z,0
2018-12-24T03:55:32.124Z,0
2018-12-24T03:56:42.186Z,0
2018-12-24T03:57:52.303Z,0
2018-12-24T03:59:03.039Z,0
2018-12-24T04:00:13.839Z,0
2018-12-24T04:01:24.296Z,0
2018-12-24T04:02:34.376Z,0
2018-12-24T04:03:44.193Z,0
2018-12-24T04:04:54.293Z,0
2018-12-24T04:06:04.202Z,0
2018-12-24T04:07:14.310Z,0
2018-12-24T04:08:24.380Z,0
2018-12-24T04:09:34.451Z,0
2018-12-24T04:10:44.563Z,0
2018-12-24T04:11:54.638Z,0
2018-12-24T04:13:04.693Z,0
2018-12-24T04:14:14.962Z,0
2018-12-24T04:15:24.840Z,0
2018-12-24T04:16:34.937Z,0
2018-12-24T04:17:45.008Z,0
2018-12-24T04:18:55.106Z,0
2018-12-24T04:20:04.729Z,0
2018-12-24T04:21:14.872Z,0
2018-12-24T04:22:25.220Z,0
2018-12-24T04:23:35.311Z,0
2018-12-24T04:24:45.105Z,0
2018-12-24T04:25:54.990Z,0
2018-12-24T04:27:04.911Z,0
2018-12-24T04:28:14.734Z,0
2018-12-24T04:29:24.788Z,0
2018-12-24T04:30:34.654Z,0
2018-12-24T04:31:44.734Z,0
2018-12-24T04:32:54.815Z,0
2018-12-24T04:34:04.615Z,0
2018-12-24T04:35:14.201Z,0
2018-12-24T04:36:24.232Z,0
2018-12-24T04:37:34.348Z,0
2018-12-24T04:38:44.568Z,0
2018-12-24T04:39:54.367Z,0
2018-12-24T04:41:04.429Z,0
2018-12-24T04:42:14.485Z,0
2018-12-24T04:43:34.513Z,0
2018-12-24T04:44:44.592Z,0
2018-12-24T04:45:54.668Z,0
2018-12-24T04:47:04.488Z,0
2018-12-24T04:48:14.557Z,0
2018-12-24T04:49:24.636Z,0
2018-12-24T04:50:34.696Z,0
2018-12-24T04:51:44.755Z,0
2018-12-24T04:52:54.810Z,0
2018-12-24T04:54:04.851Z,0
2018-12-24T04:55:14.717Z,0
2018-12-24T04:56:25.058Z,0
2018-12-24T04:57:35.859Z,0
2018-12-24T04:58:45.974Z,0
2018-12-24T04:59:56.059Z,0
2018-12-24T05:01:06.172Z,0
2018-12-24T05:02:16.225Z,0
2018-12-24T05:03:26.433Z,0
2018-12-24T05:04:36.237Z,0
2018-12-24T05:05:46.312Z,0
2018-12-24T05:06:55.858Z,0
2018-12-24T05:08:05.944Z,0
2018-12-24T05:09:15.736Z,0
2018-12-24T05:10:25.809Z,0
2018-12-24T05:11:36.106Z,0
2018-12-24T05:12:46.173Z,0
2018-12-24T05:13:56.246Z,0
2018-12-24T05:15:06.316Z,0
2018-12-24T05:16:16.379Z,0
2018-12-24T05:17:26.517Z,0
2018-12-24T05:18:36.574Z,0
2018-12-24T05:19:46.627Z,0
2018-12-24T05:20:56.594Z,0
2018-12-24T05:22:06.749Z,0
2018-12-24T05:23:16.806Z,0
2018-12-24T05:24:26.097Z,0
2018-12-24T05:25:35.898Z,0
2018-12-24T05:26:46.179Z,0
2018-12-24T05:27:56.228Z,0
2018-12-24T05:29:06.067Z,0
2018-12-24T05:30:16.188Z,0
2018-12-24T05:31:26.263Z,0
2018-12-24T05:32:36.323Z,0
2018-12-24T05:33:46.657Z,0
2018-12-24T05:34:56.469Z,0
2018-12-24T05:36:06.812Z,0
2018-12-24T05:37:16.873Z,0
2018-12-24T05:38:26.661Z,0
2018-12-24T05:39:36.711Z,0
2018-12-24T05:40:46.769Z,0
2018-12-24T05:41:56.831Z,0
2018-12-24T05:43:06.637Z,0
2018-12-24T05:44:16.686Z,0
2018-12-24T05:45:26.489Z,0
2018-12-24T05:46:36.549Z,0
2018-12-24T05:47:46.631Z,0
2018-12-24T05:48:56.682Z,0
2018-12-24T05:50:06.506Z,0
2018-12-24T05:51:16.547Z,0
2018-12-24T05:52:26.632Z,0
2018-12-24T05:53:36.674Z,0
2018-12-24T05:54:46.725Z,0
2018-12-24T05:55:56.850Z,0
2018-12-24T05:57:06.920Z,0
2018-12-24T05:58:16.992Z,0
2018-12-24T05:59:27.058Z,0
2018-12-24T06:00:37.134Z,0
2018-12-24T06:01:47.201Z,0
2018-12-24T06:02:57.261Z,0
2018-12-24T06:04:07.322Z,0
2018-12-24T06:05:17.543Z,0
2018-12-24T06:06:27.347Z,0
2018-12-24T06:07:37.172Z,0
2018-12-24T06:08:47.262Z,0
2018-12-24T06:09:57.062Z,0
2018-12-24T06:11:06.863Z,0
2018-12-24T06:12:16.914Z,0
2018-12-24T06:13:26.978Z,0
2018-12-24T06:14:37.035Z,0
2018-12-24T06:15:47.508Z,0
2018-12-24T06:16:57.567Z,0
2018-12-24T06:18:08.571Z,0
2018-12-24T06:19:18.768Z,0
2018-12-24T06:20:37.451Z,0
2018-12-24T06:21:47.765Z,0
2018-12-24T06:22:57.840Z,0
2018-12-24T06:24:08.034Z,0
2018-12-24T06:25:18.104Z,0
2018-12-24T06:26:27.907Z,0
2018-12-24T06:27:37.975Z,0
2018-12-24T06:28:48.083Z,0
2018-12-24T06:29:58.247Z,0
2018-12-24T06:31:12.360Z,0
2018-12-24T06:32:22.420Z,0
2018-12-24T06:33:32.492Z,4
2018-12-24T06:34:42.766Z,4
2018-12-24T06:35:52.567Z,4
2018-12-24T06:37:03.799Z,4
2018-12-24T06:38:13.601Z,0
2018-12-24T06:39:23.774Z,4
2018-12-24T06:40:34.062Z,4
2018-12-24T06:41:43.879Z,4
2018-12-24T06:42:53.945Z,8
2018-12-24T06:44:11.435Z,8
2018-12-24T06:45:21.739Z,4
2018-12-24T06:46:31.797Z,4
2018-12-24T06:47:41.610Z,4
2018-12-24T06:48:51.720Z,8
2018-12-24T06:50:02.529Z,8
2018-12-24T06:51:12.379Z,8
2018-12-24T06:52:22.181Z,8
2018-12-24T06:53:32.243Z,12
2018-12-24T06:54:42.315Z,8
2018-12-24T06:55:52.376Z,8
2018-12-24T06:57:02.443Z,12
2018-12-24T06:58:12.595Z,16
2018-12-24T06:59:22.815Z,16
2018-12-24T07:00:32.950Z,16
2018-12-24T07:01:43.013Z,16
2018-12-24T07:02:53.072Z,20
2018-12-24T07:04:03.158Z,20
2018-12-24T07:05:13.206Z,24
2018-12-24T07:06:23.305Z,24
2018-12-24T07:07:33.368Z,24
2018-12-24T07:08:43.176Z,32
2018-12-24T07:09:53.124Z,32
2018-12-24T07:11:03.182Z,36
2018-12-24T07:12:13.484Z,36
2018-12-24T07:13:23.547Z,40
2018-12-24T07:14:33.592Z,40
2018-12-24T07:15:44.256Z,40
2018-12-24T07:16:54.425Z,40
2018-12-24T07:18:05.447Z,44
2018-12-24T07:19:15.256Z,40
2018-12-24T07:20:24.918Z,44
2018-12-24T07:21:34.714Z,48
2018-12-24T07:22:45.033Z,52
2018-12-24T07:23:55.097Z,56
2018-12-24T07:25:06.128Z,52
2018-12-24T07:26:16.389Z,48
2018-12-24T07:27:26.513Z,52
2018-12-24T07:28:36.637Z,60
2018-12-24T07:29:46.699Z,64
2018-12-24T07:30:56.522Z,72
2018-12-24T07:32:06.590Z,80
2018-12-24T07:33:16.450Z,84
2018-12-24T07:34:34.761Z,92
2018-12-24T07:35:44.615Z,104
2018-12-24T07:36:54.495Z,108
2018-12-24T07:38:05.568Z,108
2018-12-24T07:39:15.667Z,112
2018-12-24T07:40:25.946Z,112
2018-12-24T07:41:36.007Z,116
2018-12-24T07:42:46.284Z,112
2018-12-24T07:43:56.195Z,108
2018-12-24T07:45:06.252Z,116
2018-12-24T07:46:16.064Z,128
2018-12-24T07:47:26.196Z,132
2018-12-24T07:48:36.358Z,132
2018-12-24T07:49:46.262Z,136
2018-12-24T07:50:56.314Z,144
2018-12-24T07:52:06.376Z,152
2018-12-24T07:53:16.538Z,156
2018-12-24T07:54:26.612Z,164
2018-12-24T07:55:36.477Z,180
2018-12-24T07:56:46.516Z,192
2018-12-24T07:57:56.597Z,204
2018-12-24T07:59:07.927Z,212
2018-12-24T08:00:18.546Z,208
2018-12-24T08:01:28.619Z,200
2018-12-24T08:02:39.115Z,196
2018-12-24T08:03:49.177Z,208
2018-12-24T08:04:58.987Z,208
2018-12-24T08:06:10.161Z,212
2018-12-24T08:07:20.584Z,220
2018-12-24T08:08:30.663Z,248
2018-12-24T08:09:40.951Z,264
2018-12-24T08:10:50.994Z,260
2018-12-24T08:12:01.528Z,252
2018-12-24T08:13:11.657Z,232
2018-12-24T08:14:21.755Z,232
2018-12-24T08:15:40.204Z,224
2018-12-24T08:16:50.261Z,200
2018-12-24T08:18:00.664Z,196
2018-12-24T08:19:10.476Z,192
2018-12-24T08:20:20.274Z,228
2018-12-24T08:21:30.348Z,248
2018-12-24T08:22:40.468Z,308
2018-12-24T08:23:50.544Z,332
2018-12-24T08:25:03.047Z,400
2018-12-24T08:26:13.119Z,520
2018-12-24T08:27:22.964Z,564
2018-12-24T08:28:33.043Z,596
2018-12-24T08:29:43.107Z,692
2018-12-24T08:30:53.233Z,712
2018-12-24T08:32:03.286Z,716
2018-12-24T08:33:13.124Z,860
2018-12-24T08:34:23.493Z,1100
2018-12-24T08:35:34.906Z,1188
2018-12-24T08:36:45.644Z,1224
2018-12-24T08:37:56.040Z,1260
2018-12-24T08:39:06.272Z,1280
2018-12-24T08:40:16.473Z,1220
2018-12-24T08:41:26.608Z,1020
2018-12-24T08:42:36.673Z,848
2018-12-24T08:43:46.475Z,812
2018-12-24T08:44:56.546Z,724
2018-12-24T08:46:06.672Z,688
2018-12-24T08:47:16.493Z,748
2018-12-24T08:48:26.608Z,788
2018-12-24T08:49:36.723Z,800
2018-12-24T08:50:46.814Z,824
2018-12-24T08:51:56.864Z,700
2018-12-24T08:53:06.656Z,584
2018-12-24T08:54:16.762Z,608
2018-12-24T08:55:26.817Z,696
2018-12-24T08:56:36.630Z,888
2018-12-24T08:57:46.739Z,980
2018-12-24T08:58:56.798Z,892
2018-12-24T09:00:08.445Z,844
2018-12-24T09:01:18.660Z,708
2018-12-24T09:02:28.984Z,732
2018-12-24T09:03:39.066Z,836
2018-12-24T09:04:49.118Z,940
2018-12-24T09:05:59.247Z,1008
2018-12-24T09:07:10.544Z,980
2018-12-24T09:08:20.632Z,1004
2018-12-24T09:09:30.706Z,1124
2018-12-24T09:10:40.764Z,1408
2018-12-24T09:11:50.882Z,1728
2018-12-24T09:13:00.969Z,1900
2018-12-24T09:14:11.046Z,1980
2018-12-24T09:15:20.863Z,2056
2018-12-24T09:16:30.688Z,1872
2018-12-24T09:17:42.405Z,1760
2018-12-24T09:18:52.488Z,1580
2018-12-24T09:20:02.792Z,1440
2018-12-24T09:21:12.321Z,1448
2018-12-24T09:22:22.493Z,1480
2018-12-24T09:23:32.572Z,1524
2018-12-24T09:24:42.644Z,1580
2018-12-24T09:25:52.777Z,1576
2018-12-24T09:27:02.873Z,1496
2018-12-24T09:28:12.974Z,1456
2018-12-24T09:29:23.087Z,1244
2018-12-24T09:30:33.166Z,1060
2018-12-24T09:31:43.278Z,900
2018-12-24T09:32:53.146Z,784
2018-12-24T09:34:03.459Z,728
2018-12-24T09:35:14.238Z,732
2018-12-24T09:36:24.341Z,764
2018-12-24T09:37:34.487Z,816
2018-12-24T09:38:44.564Z,860
2018-12-24T09:39:54.139Z,856
2018-12-24T09:41:04.037Z,884
2018-12-24T09:42:14.135Z,784
2018-12-24T09:43:24.237Z,756
2018-12-24T09:44:34.308Z,948
2018-12-24T09:45:44.400Z,1128
2018-12-24T09:46:54.721Z,1200
2018-12-24T09:48:05.850Z,1168
2018-12-24T09:49:16.013Z,1180
2018-12-24T09:50:26.093Z,1336
2018-12-24T09:51:35.936Z,1444
2018-12-24T09:52:46.099Z,1688
2018-12-24T09:53:56.194Z,1596
2018-12-24T09:55:06.300Z,1480
2018-12-24T09:56:19.447Z,1320
2018-12-24T09:57:30.263Z,1296
2018-12-24T09:58:40.514Z,1296
2018-12-24T09:59:50.617Z,1328
2018-12-24T10:01:01.441Z,1372
2018-12-24T10:02:11.523Z,1344
2018-12-24T10:03:21.619Z,1316
2018-12-24T10:04:31.700Z,1256
2018-12-24T10:05:41.764Z,1304
2018-12-24T10:06:52.147Z,1452
2018-12-24T10:08:02.210Z,1768
2018-12-24T10:09:12.305Z,2028
2018-12-24T10:10:21.866Z,2136
2018-12-24T10:11:31.687Z,2280
2018-12-24T10:12:41.768Z,2412
2018-12-24T10:13:51.376Z,2496
2018-12-24T10:15:10.347Z,2724
2018-12-24T10:16:20.478Z,2736
2018-12-24T10:17:30.576Z,2688
2018-12-24T10:18:40.382Z,2848
2018-12-24T10:19:50.218Z,3108
2018-12-24T10:21:00.346Z,3184
2018-12-24T10:22:10.142Z,3192
2018-12-24T10:23:20.248Z,3168
2018-12-24T10:24:30.325Z,3068
2018-12-24T10:25:40.400Z,2920
2018-12-24T10:26:50.412Z,2648
2018-12-24T10:28:03.243Z,2360
2018-12-24T10:29:13.448Z,2160
2018-12-24T10:30:23.293Z,2104
2018-12-24T10:31:33.370Z,2116
2018-12-24T10:32:42.926Z,2120
2018-12-24T10:33:53.016Z,2076
2018-12-24T10:35:03.116Z,2112
2018-12-24T10:36:13.198Z,2304
2018-12-24T10:37:23.287Z,2392
2018-12-24T10:38:33.401Z,2428
2018-12-24T10:39:43.530Z,2340
2018-12-24T10:40:53.319Z,2112
2018-12-24T10:42:03.390Z,2012
2018-12-24T10:43:13.465Z,2036
2018-12-24T10:44:23.286Z,2132
2018-12-24T10:45:33.433Z,2160
2018-12-24T10:46:44.194Z,2320
2018-12-24T10:47:54.053Z,2380
2018-12-24T10:49:03.896Z,2176
2018-12-24T10:50:13.979Z,2132
2018-12-24T10:51:23.904Z,2180
2018-12-24T10:52:33.732Z,2096
2018-12-24T10:53:43.884Z,1936
2018-12-24T10:54:53.968Z,1732
2018-12-24T10:56:04.691Z,1484
2018-12-24T10:57:14.781Z,1316
2018-12-24T10:58:24.889Z,1228
2018-12-24T10:59:34.991Z,1248
2018-12-24T11:00:45.104Z,1380
2018-12-24T11:01:55.000Z,1536
2018-12-24T11:03:07.753Z,1684
2018-12-24T11:04:17.850Z,1648
2018-12-24T11:05:27.934Z,1240
2018-12-24T11:06:38.017Z,764
2018-12-24T11:07:47.887Z,724
2018-12-24T11:08:57.714Z,832
2018-12-24T11:10:07.814Z,1100
2018-12-24T11:11:17.716Z,1352
2018-12-24T11:12:27.796Z,1328
2018-12-24T11:13:39.599Z,1332
2018-12-24T11:14:49.332Z,1356
2018-12-24T11:15:59.167Z,1596
2018-12-24T11:17:09.251Z,1528
2018-12-24T11:18:19.326Z,1160
2018-12-24T11:19:29.161Z,1032
2018-12-24T11:20:38.999Z,996
2018-12-24T11:21:49.066Z,1060
2018-12-24T11:22:59.129Z,1092
2018-12-24T11:24:09.206Z,1008
2018-12-24T11:25:18.807Z,860
2018-12-24T11:26:28.944Z,780
2018-12-24T11:27:38.937Z,916
2018-12-24T11:28:49.032Z,964
2018-12-24T11:29:58.824Z,828
2018-12-24T11:31:08.669Z,868
2018-12-24T11:32:18.763Z,1240
2018-12-24T11:33:28.852Z,1500
2018-12-24T11:34:38.914Z,1748
2018-12-24T11:35:48.960Z,1848
2018-12-24T11:36:59.125Z,1660
2018-12-24T11:38:10.509Z,1804
2018-12-24T11:39:20.422Z,1724
2018-12-24T11:40:30.508Z,1360
2018-12-24T11:41:40.651Z,1056
2018-12-24T11:42:51.002Z,816
2018-12-24T11:44:01.070Z,960
2018-12-24T11:45:10.881Z,960
2018-12-24T11:46:20.983Z,1028
2018-12-24T11:47:31.157Z,1176
2018-12-24T11:48:41.284Z,1208
2018-12-24T11:49:51.358Z,1092
2018-12-24T11:51:01.438Z,1084
2018-12-24T11:52:11.520Z,1088
2018-12-24T11:53:21.589Z,1200
2018-12-24T11:54:31.753Z,1556
2018-12-24T11:55:41.836Z,1864
2018-12-24T11:56:51.914Z,2044
2018-12-24T11:58:02.020Z,2236
2018-12-24T11:59:12.154Z,2396
2018-12-24T12:00:22.705Z,2456
2018-12-24T12:01:32.518Z,2488
2018-12-24T12:02:42.334Z,2616
2018-12-24T12:03:52.535Z,2856
2018-12-24T12:05:02.361Z,2456
2018-12-24T12:06:19.599Z,2652
2018-12-24T12:07:29.681Z,2332
2018-12-24T12:08:39.788Z,5816
2018-12-24T12:09:49.866Z,4944
2018-12-24T12:11:01.576Z,2612
2018-12-24T12:12:11.823Z,6032
2018-12-24T12:13:21.906Z,5732
2018-12-24T12:14:31.978Z,3300
2018-12-24T12:15:49.799Z,3168
2018-12-24T12:16:59.896Z,3268
2018-12-24T12:18:10.210Z,5904
2018-12-24T12:19:20.304Z,6604
2018-12-24T12:20:30.364Z,9252
2018-12-24T12:21:40.191Z,12696
2018-12-24T12:22:50.002Z,6140
2018-12-24T12:24:00.083Z,12620
2018-12-24T12:25:10.164Z,11616
2018-12-24T12:26:20.247Z,5732
2018-12-24T12:27:30.104Z,3028
2018-12-24T12:28:40.221Z,2556
2018-12-24T12:29:50.091Z,2640
2018-12-24T12:31:00.166Z,2460
2018-12-24T12:32:10.236Z,2652
2018-12-24T12:33:20.050Z,4508
2018-12-24T12:34:30.127Z,2696
2018-12-24T12:35:40.241Z,2716
2018-12-24T12:36:50.348Z,2124
2018-12-24T12:38:01.531Z,1988
2018-12-24T12:39:11.356Z,2108
2018-12-24T12:40:21.202Z,2152
2018-12-24T12:41:31.328Z,2084
2018-12-24T12:42:41.417Z,1904
2018-12-24T12:43:51.500Z,1904
2018-12-24T12:45:01.604Z,1920
2018-12-24T12:46:11.672Z,1840
2018-12-24T12:47:22.012Z,1816
2018-12-24T12:48:32.111Z,1676
2018-12-24T12:49:41.932Z,1536
2018-12-24T12:50:52.009Z,1544
2018-12-24T12:52:02.318Z,1548
2018-12-24T12:53:12.471Z,1572
2018-12-24T12:54:22.543Z,1588
2018-12-24T12:55:32.534Z,1668
2018-12-24T12:56:42.594Z,1684
2018-12-24T12:57:52.663Z,1724
2018-12-24T12:59:05.409Z,1888
2018-12-24T13:00:16.435Z,1896
2018-12-24T13:01:26.777Z,1920
2018-12-24T13:02:36.841Z,1672
2018-12-24T13:03:46.935Z,4292
2018-12-24T13:04:57.052Z,4448
2018-12-24T13:06:06.847Z,3476
2018-12-24T13:07:16.938Z,4032
2018-12-24T13:08:27.003Z,4116
2018-12-24T13:09:37.077Z,3876
2018-12-24T13:10:47.150Z,4108
2018-12-24T13:11:57.207Z,3988
2018-12-24T13:13:07.040Z,3920
2018-12-24T13:14:17.217Z,3836
2018-12-24T13:15:27.316Z,1788
2018-12-24T13:16:37.286Z,1860
2018-12-24T13:17:47.100Z,3788
2018-12-24T13:18:57.192Z,3412
2018-12-24T13:20:07.034Z,2408
2018-12-24T13:21:17.111Z,3804
2018-12-24T13:22:26.928Z,3844
2018-12-24T13:23:37.015Z,3744
2018-12-24T13:24:46.968Z,3700
2018-12-24T13:25:57.257Z,3636
2018-12-24T13:27:09.380Z,1604
2018-12-24T13:28:19.548Z,2860
2018-12-24T13:29:29.396Z,1532
2018-12-24T13:30:39.490Z,3056
2018-12-24T13:31:49.562Z,3364
2018-12-24T13:32:59.626Z,3224
2018-12-24T13:34:09.716Z,3328
2018-12-24T13:35:19.809Z,3336
2018-12-24T13:36:29.934Z,3356
2018-12-24T13:37:39.767Z,3272
2018-12-24T13:38:50.104Z,3172
2018-12-24T13:40:00.322Z,3140
2018-12-24T13:41:10.426Z,3036
2018-12-24T13:42:20.506Z,2912
2018-12-24T13:43:30.324Z,2784
2018-12-24T13:44:40.167Z,2704
2018-12-24T13:45:50.294Z,2652
2018-12-24T13:47:01.183Z,2604
2018-12-24T13:48:11.025Z,2584
2018-12-24T13:49:21.485Z,2544
2018-12-24T13:50:31.542Z,2528
2018-12-24T13:51:41.665Z,1980
2018-12-24T13:52:51.757Z,2420
2018-12-24T13:54:01.857Z,2312
2018-12-24T13:55:11.936Z,2324
2018-12-24T13:56:21.975Z,1204
2018-12-24T13:57:31.936Z,2180
2018-12-24T13:58:42.037Z,2248
2018-12-24T13:59:52.117Z,2196
2018-12-24T14:01:02.194Z,2060
2018-12-24T14:02:12.576Z,1248
2018-12-24T14:03:24.424Z,1180
2018-12-24T14:04:34.636Z,1000
2018-12-24T14:05:44.729Z,976
2018-12-24T14:06:54.818Z,960
2018-12-24T14:08:04.894Z,1080
2018-12-24T14:09:15.079Z,948
2018-12-24T14:10:25.204Z,1000
2018-12-24T14:11:35.306Z,944
2018-12-24T14:12:45.438Z,900
2018-12-24T14:13:55.620Z,888
2018-12-24T14:15:07.187Z,880
2018-12-24T14:16:24.155Z,1156
2018-12-24T14:17:34.095Z,1140
2018-12-24T14:18:44.218Z,1048
2018-12-24T14:19:54.307Z,916
2018-12-24T14:21:04.467Z,800
2018-12-24T14:22:14.559Z,644
2018-12-24T14:23:24.420Z,600
2018-12-24T14:24:34.484Z,584
2018-12-24T14:25:45.617Z,552
2018-12-24T14:26:55.823Z,576
2018-12-24T14:28:06.421Z,604
2018-12-24T14:29:17.042Z,616
2018-12-24T14:30:27.134Z,592
2018-12-24T14:31:37.227Z,564
2018-12-24T14:32:47.054Z,532
2018-12-24T14:33:57.152Z,488
2018-12-24T14:35:07.233Z,452
2018-12-24T14:36:17.340Z,448
2018-12-24T14:37:27.743Z,444
2018-12-24T14:38:37.758Z,440
2018-12-24T14:39:48.872Z,432
2018-12-24T14:40:58.982Z,408
2018-12-24T14:42:10.043Z,392
2018-12-24T14:43:19.871Z,380
2018-12-24T14:44:29.941Z,368
2018-12-24T14:45:39.851Z,352
2018-12-24T14:46:49.925Z,336
2018-12-24T14:47:59.848Z,328
2018-12-24T14:49:10.893Z,312
2018-12-24T14:50:21.076Z,296
2018-12-24T14:51:31.179Z,280
2018-12-24T14:52:40.994Z,264
2018-12-24T14:53:51.103Z,240
2018-12-24T14:55:01.114Z,224
2018-12-24T14:56:11.304Z,212
2018-12-24T14:57:21.215Z,196
2018-12-24T14:58:31.295Z,176
2018-12-24T14:59:41.473Z,168
2018-12-24T15:00:51.648Z,148
2018-12-24T15:02:01.804Z,132
2018-12-24T15:03:11.372Z,120
2018-12-24T15:04:21.485Z,108
2018-12-24T15:05:31.692Z,100
2018-12-24T15:06:41.782Z,88
2018-12-24T15:07:51.877Z,76
2018-12-24T15:09:01.711Z,68
2018-12-24T15:10:11.805Z,60
2018-12-24T15:11:21.656Z,56
2018-12-24T15:12:31.739Z,44
2018-12-24T15:13:41.811Z,44
2018-12-24T15:14:51.906Z,36
2018-12-24T15:16:02.235Z,28
2018-12-24T15:17:12.314Z,28
2018-12-24T15:18:22.361Z,24
2018-12-24T15:19:32.188Z,20
2018-12-24T15:20:42.286Z,16
2018-12-24T15:21:52.150Z,16
2018-12-24T15:23:02.214Z,8
2018-12-24T15:24:12.400Z,8
2018-12-24T15:25:22.473Z,8
2018-12-24T15:26:32.554Z,4
2018-12-24T15:27:42.632Z,4
2018-12-24T15:28:52.715Z,8
2018-12-24T15:30:05.012Z,4
2018-12-24T15:31:14.879Z,4
2018-12-24T15:32:24.949Z,4
2018-12-24T15:33:34.770Z,0
2018-12-24T15:34:44.840Z,4
2018-12-24T15:35:54.923Z,4
2018-12-24T15:37:06.386Z,0
2018-12-24T15:38:16.257Z,0
2018-12-24T15:39:26.334Z,0
2018-12-24T15:40:36.607Z,0
2018-12-24T15:41:46.182Z,0
2018-12-24T15:42:56.266Z,0
2018-12-24T15:44:06.372Z,0
2018-12-24T15:45:16.445Z,0
2018-12-24T15:46:26.513Z,0
2018-12-24T15:47:38.787Z,0
2018-12-24T15:48:48.672Z,0
2018-12-24T15:49:58.485Z,0
2018-12-24T15:51:08.947Z,0
2018-12-24T15:52:19.009Z,0
2018-12-24T15:53:29.091Z,0
2018-12-24T15:54:39.150Z,0
2018-12-24T15:55:49.301Z,0
2018-12-24T15:56:59.527Z,0
2018-12-24T15:58:10.241Z,0
2018-12-24T15:59:22.559Z,0
2018-12-24T16:00:32.985Z,0
2018-12-24T16:01:43.029Z,0
2018-12-24T16:02:53.117Z,0
2018-12-24T16:04:04.794Z,0
2018-12-24T16:05:14.582Z,0
2018-12-24T16:06:24.643Z,0
2018-12-24T16:07:33.959Z,0
2018-12-24T16:08:44.023Z,0
2018-12-24T16:09:54.100Z,0
2018-12-24T16:11:04.244Z,0
2018-12-24T16:12:14.307Z,0
2018-12-24T16:13:24.375Z,0
2018-12-24T16:14:34.448Z,0
2018-12-24T16:15:44.544Z,0
2018-12-24T16:16:58.219Z,0
2018-12-24T16:18:10.712Z,0
2018-12-24T16:19:20.794Z,0
2018-12-24T16:20:30.873Z,0
2018-12-24T16:21:40.680Z,0
2018-12-24T16:22:50.577Z,0
2018-12-24T16:24:00.984Z,0
2018-12-24T16:25:11.066Z,0
2018-12-24T16:26:21.258Z,0
2018-12-24T16:27:31.339Z,0
2018-12-24T16:28:41.420Z,0
2018-12-24T16:29:51.596Z,0
2018-12-24T16:31:01.751Z,0
2018-12-24T16:32:11.610Z,0
2018-12-24T16:33:21.454Z,0
2018-12-24T16:34:31.537Z,0
2018-12-24T16:35:41.591Z,0
2018-12-24T16:36:51.649Z,0
2018-12-24T16:38:04.079Z,0
2018-12-24T16:39:14.233Z,0
2018-12-24T16:40:24.299Z,0
2018-12-24T16:41:34.413Z,0
2018-12-24T16:42:44.492Z,0
2018-12-24T16:43:54.665Z,0
2018-12-24T16:45:05.841Z,0
2018-12-24T16:46:15.928Z,0
2018-12-24T16:47:26.041Z,0
2018-12-24T16:48:36.128Z,0
2018-12-24T16:49:46.208Z,0
2018-12-24T16:50:58.190Z,0
2018-12-24T16:52:08.270Z,0
2018-12-24T16:53:18.435Z,0
2018-12-24T16:54:28.523Z,0
2018-12-24T16:55:38.450Z,0
2018-12-24T16:56:48.518Z,0
2018-12-24T16:57:58.439Z,0
2018-12-24T16:59:10.512Z,0
2018-12-24T17:00:20.930Z,0
2018-12-24T17:01:30.979Z,0
2018-12-24T17:02:41.059Z,0
2018-12-24T17:03:51.128Z,0
2018-12-24T17:05:01.257Z,0
2018-12-24T17:06:11.055Z,0
2018-12-24T17:07:21.108Z,0
2018-12-24T17:08:31.164Z,0
2018-12-24T17:09:41.262Z,0
2018-12-24T17:10:51.363Z,0
2018-12-24T17:12:01.717Z,0
2018-12-24T17:13:11.770Z,0
2018-12-24T17:14:21.569Z,0
2018-12-24T17:15:31.430Z,0
2018-12-24T17:16:41.547Z,0
2018-12-24T17:17:51.609Z,0
2018-12-24T17:19:01.700Z,0
2018-12-24T17:20:11.769Z,0
2018-12-24T17:21:21.654Z,0
2018-12-24T17:22:31.460Z,0